sensor_id;sensor_type;location;lat;lon;timestamp;temperature;humidity
16040;DHT22;8124;48.634;8.120;2022-07-23T00:00:40;27.90;93.60
16040;DHT22;8124;48.634;8.120;2022-07-23T00:05:43;27.80;93.70
16040;DHT22;8124;48.634;8.120;2022-07-23T00:10:46;27.80;94.20
16040;DHT22;8124;48.634;8.120;2022-07-23T00:15:50;27.80;95.20
16040;DHT22;8124;48.634;8.120;2022-07-23T00:20:53;27.60;96.20
16040;DHT22;8124;48.634;8.120;2022-07-23T00:25:56;27.60;96.70
16040;DHT22;8124;48.634;8.120;2022-07-23T00:31:07;27.30;97.60
16040;DHT22;8124;48.634;8.120;2022-07-23T00:36:10;27.50;98.80
16040;DHT22;8124;48.634;8.120;2022-07-23T00:41:13;27.50;99.80
16040;DHT22;8124;48.634;8.120;2022-07-23T00:46:20;27.10;99.90
16040;DHT22;8124;48.634;8.120;2022-07-23T00:51:23;26.80;99.90
16040;DHT22;8124;48.634;8.120;2022-07-23T00:56:26;26.90;99.90
16040;DHT22;8124;48.634;8.120;2022-07-23T01:01:30;26.70;99.90
16040;DHT22;8124;48.634;8.120;2022-07-23T01:06:35;26.00;99.90
16040;DHT22;8124;48.634;8.120;2022-07-23T01:11:38;26.20;99.90
16040;DHT22;8124;48.634;8.120;2022-07-23T01:16:46;26.70;99.90
16040;DHT22;8124;48.634;8.120;2022-07-23T01:21:53;26.50;99.90
16040;DHT22;8124;48.634;8.120;2022-07-23T01:27:00;26.40;99.90
16040;DHT22;8124;48.634;8.120;2022-07-23T01:32:04;26.40;99.90
16040;DHT22;8124;48.634;8.120;2022-07-23T01:37:07;26.70;99.90
16040;DHT22;8124;48.634;8.120;2022-07-23T01:42:11;26.90;99.90
16040;DHT22;8124;48.634;8.120;2022-07-23T01:47:15;26.90;99.90
16040;DHT22;8124;48.634;8.120;2022-07-23T01:52:18;26.80;99.90
16040;DHT22;8124;48.634;8.120;2022-07-23T01:57:25;26.50;99.90
16040;DHT22;8124;48.634;8.120;2022-07-23T02:02:28;26.70;99.90
16040;DHT22;8124;48.634;8.120;2022-07-23T02:07:31;26.80;99.90
16040;DHT22;8124;48.634;8.120;2022-07-23T02:12:37;26.80;99.90
16040;DHT22;8124;48.634;8.120;2022-07-23T02:17:40;26.70;99.90
16040;DHT22;8124;48.634;8.120;2022-07-23T02:22:44;26.60;99.90
16040;DHT22;8124;48.634;8.120;2022-07-23T02:27:48;26.50;99.90
16040;DHT22;8124;48.634;8.120;2022-07-23T02:32:51;26.50;99.90
16040;DHT22;8124;48.634;8.120;2022-07-23T02:37:54;26.20;99.90
16040;DHT22;8124;48.634;8.120;2022-07-23T02:42:58;26.30;99.90
16040;DHT22;8124;48.634;8.120;2022-07-23T02:48:03;26.20;99.90
16040;DHT22;8124;48.634;8.120;2022-07-23T02:53:06;26.20;99.90
16040;DHT22;8124;48.634;8.120;2022-07-23T02:58:10;26.10;99.90
16040;DHT22;8124;48.634;8.120;2022-07-23T03:03:13;26.10;99.90
16040;DHT22;8124;48.634;8.120;2022-07-23T03:08:16;26.10;99.90
16040;DHT22;8124;48.634;8.120;2022-07-23T03:13:25;26.20;99.90
16040;DHT22;8124;48.634;8.120;2022-07-23T03:18:29;26.10;99.90
16040;DHT22;8124;48.634;8.120;2022-07-23T03:23:32;25.70;99.90
16040;DHT22;8124;48.634;8.120;2022-07-23T03:28:37;24.60;99.90
16040;DHT22;8124;48.634;8.120;2022-07-23T03:33:40;24.80;99.90
16040;DHT22;8124;48.634;8.120;2022-07-23T03:38:44;25.30;99.90
16040;DHT22;8124;48.634;8.120;2022-07-23T03:43:48;25.40;99.90
16040;DHT22;8124;48.634;8.120;2022-07-23T03:48:51;25.40;99.90
16040;DHT22;8124;48.634;8.120;2022-07-23T03:53:59;25.10;99.90
16040;DHT22;8124;48.634;8.120;2022-07-23T03:59:04;25.20;99.90
16040;DHT22;8124;48.634;8.120;2022-07-23T04:04:07;25.30;99.90
16040;DHT22;8124;48.634;8.120;2022-07-23T04:09:12;25.40;99.90
16040;DHT22;8124;48.634;8.120;2022-07-23T04:14:17;25.40;99.90
16040;DHT22;8124;48.634;8.120;2022-07-23T04:19:21;25.30;99.90
16040;DHT22;8124;48.634;8.120;2022-07-23T04:24:34;25.20;99.90
16040;DHT22;8124;48.634;8.120;2022-07-23T04:29:38;25.20;99.90
16040;DHT22;8124;48.634;8.120;2022-07-23T04:34:41;25.10;99.90
16040;DHT22;8124;48.634;8.120;2022-07-23T04:39:44;24.60;99.90
16040;DHT22;8124;48.634;8.120;2022-07-23T04:44:50;24.00;99.90
16040;DHT22;8124;48.634;8.120;2022-07-23T04:49:53;24.80;99.90
16040;DHT22;8124;48.634;8.120;2022-07-23T04:54:56;25.10;99.90
16040;DHT22;8124;48.634;8.120;2022-07-23T05:00:00;25.30;99.90
16040;DHT22;8124;48.634;8.120;2022-07-23T05:05:05;25.40;99.90
16040;DHT22;8124;48.634;8.120;2022-07-23T05:10:08;25.20;99.90
16040;DHT22;8124;48.634;8.120;2022-07-23T05:15:12;25.10;99.90
16040;DHT22;8124;48.634;8.120;2022-07-23T05:20:16;25.40;99.90
16040;DHT22;8124;48.634;8.120;2022-07-23T05:25:19;25.60;99.90
16040;DHT22;8124;48.634;8.120;2022-07-23T05:30:23;25.70;99.90
16040;DHT22;8124;48.634;8.120;2022-07-23T05:40:54;25.90;99.90
16040;DHT22;8124;48.634;8.120;2022-07-23T05:45:58;25.80;99.90
16040;DHT22;8124;48.634;8.120;2022-07-23T05:51:02;25.50;99.90
16040;DHT22;8124;48.634;8.120;2022-07-23T05:56:08;25.20;99.90
16040;DHT22;8124;48.634;8.120;2022-07-23T06:01:13;24.60;99.90
16040;DHT22;8124;48.634;8.120;2022-07-23T06:06:34;24.70;99.90
16040;DHT22;8124;48.634;8.120;2022-07-23T06:11:38;24.30;99.90
16040;DHT22;8124;48.634;8.120;2022-07-23T06:16:42;24.70;99.90
16040;DHT22;8124;48.634;8.120;2022-07-23T06:21:45;24.80;99.90
16040;DHT22;8124;48.634;8.120;2022-07-23T06:26:50;24.40;99.90
16040;DHT22;8124;48.634;8.120;2022-07-23T06:31:56;24.80;99.90
16040;DHT22;8124;48.634;8.120;2022-07-23T06:37:00;25.00;99.90
16040;DHT22;8124;48.634;8.120;2022-07-23T06:42:03;24.90;99.90
16040;DHT22;8124;48.634;8.120;2022-07-23T06:47:18;24.90;99.90
16040;DHT22;8124;48.634;8.120;2022-07-23T06:52:22;24.80;99.90
16040;DHT22;8124;48.634;8.120;2022-07-23T06:57:25;24.90;99.90
16040;DHT22;8124;48.634;8.120;2022-07-23T07:02:31;24.90;99.90
16040;DHT22;8124;48.634;8.120;2022-07-23T07:07:35;25.10;99.90
16040;DHT22;8124;48.634;8.120;2022-07-23T07:12:38;24.80;99.90
16040;DHT22;8124;48.634;8.120;2022-07-23T07:17:42;24.80;99.90
16040;DHT22;8124;48.634;8.120;2022-07-23T07:22:45;24.90;99.90
16040;DHT22;8124;48.634;8.120;2022-07-23T07:27:48;25.10;99.90
16040;DHT22;8124;48.634;8.120;2022-07-23T07:32:53;24.90;99.90
16040;DHT22;8124;48.634;8.120;2022-07-23T07:37:58;24.70;99.90
16040;DHT22;8124;48.634;8.120;2022-07-23T07:43:01;25.00;99.90
16040;DHT22;8124;48.634;8.120;2022-07-23T07:48:07;25.10;99.90
16040;DHT22;8124;48.634;8.120;2022-07-23T07:53:10;25.20;99.90
16040;DHT22;8124;48.634;8.120;2022-07-23T07:58:14;25.20;99.90
16040;DHT22;8124;48.634;8.120;2022-07-23T08:03:18;25.30;99.90
16040;DHT22;8124;48.634;8.120;2022-07-23T08:08:21;25.30;99.90
16040;DHT22;8124;48.634;8.120;2022-07-23T08:13:24;25.30;99.90
16040;DHT22;8124;48.634;8.120;2022-07-23T08:18:28;25.30;99.90
16040;DHT22;8124;48.634;8.120;2022-07-23T08:23:31;25.40;99.90
16040;DHT22;8124;48.634;8.120;2022-07-23T08:28:34;25.20;99.90
16040;DHT22;8124;48.634;8.120;2022-07-23T08:33:38;25.40;99.90
16040;DHT22;8124;48.634;8.120;2022-07-23T08:38:41;25.50;99.90
16040;DHT22;8124;48.634;8.120;2022-07-23T08:43:44;25.70;99.90
16040;DHT22;8124;48.634;8.120;2022-07-23T08:48:50;25.80;99.90
16040;DHT22;8124;48.634;8.120;2022-07-23T08:53:56;25.70;99.90
16040;DHT22;8124;48.634;8.120;2022-07-23T08:58:59;25.70;99.90
16040;DHT22;8124;48.634;8.120;2022-07-23T09:04:04;26.00;99.90
16040;DHT22;8124;48.634;8.120;2022-07-23T09:09:16;26.10;99.90
16040;DHT22;8124;48.634;8.120;2022-07-23T09:14:35;26.00;99.90
16040;DHT22;8124;48.634;8.120;2022-07-23T09:19:41;26.10;99.90
16040;DHT22;8124;48.634;8.120;2022-07-23T09:25:03;26.10;99.90
16040;DHT22;8124;48.634;8.120;2022-07-23T09:30:07;26.20;99.90
16040;DHT22;8124;48.634;8.120;2022-07-23T09:35:11;25.90;99.90
16040;DHT22;8124;48.634;8.120;2022-07-23T09:40:14;26.10;99.90
16040;DHT22;8124;48.634;8.120;2022-07-23T09:45:19;26.30;99.90
16040;DHT22;8124;48.634;8.120;2022-07-23T09:50:23;26.70;99.90
16040;DHT22;8124;48.634;8.120;2022-07-23T09:55:31;26.90;99.90
16040;DHT22;8124;48.634;8.120;2022-07-23T10:00:37;26.50;99.90
16040;DHT22;8124;48.634;8.120;2022-07-23T10:05:42;26.80;99.90
16040;DHT22;8124;48.634;8.120;2022-07-23T10:11:06;27.00;99.90
16040;DHT22;8124;48.634;8.120;2022-07-23T10:16:24;27.20;99.90
16040;DHT22;8124;48.634;8.120;2022-07-23T10:21:37;27.00;99.90
16040;DHT22;8124;48.634;8.120;2022-07-23T10:26:51;27.30;99.90
16040;DHT22;8124;48.634;8.120;2022-07-23T10:32:00;27.50;99.90
16040;DHT22;8124;48.634;8.120;2022-07-23T10:37:12;27.90;99.90
16040;DHT22;8124;48.634;8.120;2022-07-23T10:42:33;27.90;99.90
16040;DHT22;8124;48.634;8.120;2022-07-23T10:47:36;28.00;99.90
16040;DHT22;8124;48.634;8.120;2022-07-23T10:53:12;28.00;99.90
16040;DHT22;8124;48.634;8.120;2022-07-23T10:58:19;28.30;99.90
16040;DHT22;8124;48.634;8.120;2022-07-23T11:03:33;28.20;99.90
16040;DHT22;8124;48.634;8.120;2022-07-23T11:08:40;28.20;99.90
16040;DHT22;8124;48.634;8.120;2022-07-23T11:13:49;28.50;99.90
16040;DHT22;8124;48.634;8.120;2022-07-23T11:19:06;28.90;99.90
16040;DHT22;8124;48.634;8.120;2022-07-23T11:24:14;29.20;99.90
16040;DHT22;8124;48.634;8.120;2022-07-23T11:29:40;29.20;99.90
16040;DHT22;8124;48.634;8.120;2022-07-23T11:34:50;29.20;99.90
16040;DHT22;8124;48.634;8.120;2022-07-23T11:39:57;29.00;99.90
16040;DHT22;8124;48.634;8.120;2022-07-23T11:45:00;29.00;99.90
16040;DHT22;8124;48.634;8.120;2022-07-23T11:50:05;29.40;99.90
16040;DHT22;8124;48.634;8.120;2022-07-23T11:55:11;29.00;99.90
16040;DHT22;8124;48.634;8.120;2022-07-23T12:00:19;29.00;99.90
16040;DHT22;8124;48.634;8.120;2022-07-23T12:05:25;29.30;99.90
16040;DHT22;8124;48.634;8.120;2022-07-23T12:10:33;29.30;99.90
16040;DHT22;8124;48.634;8.120;2022-07-23T12:15:42;29.60;99.20
16040;DHT22;8124;48.634;8.120;2022-07-23T12:20:47;29.70;98.60
16040;DHT22;8124;48.634;8.120;2022-07-23T12:25:52;29.60;98.10
16040;DHT22;8124;48.634;8.120;2022-07-23T12:30:57;29.40;97.80
16040;DHT22;8124;48.634;8.120;2022-07-23T12:36:03;29.40;98.30
16040;DHT22;8124;48.634;8.120;2022-07-23T12:41:07;29.30;98.40
16040;DHT22;8124;48.634;8.120;2022-07-23T12:46:13;29.20;98.20
16040;DHT22;8124;48.634;8.120;2022-07-23T12:51:18;29.50;98.40
16040;DHT22;8124;48.634;8.120;2022-07-23T12:56:27;29.30;97.90
16040;DHT22;8124;48.634;8.120;2022-07-23T13:01:33;29.60;97.80
16040;DHT22;8124;48.634;8.120;2022-07-23T13:06:37;29.60;97.40
16040;DHT22;8124;48.634;8.120;2022-07-23T13:11:43;29.70;97.10
16040;DHT22;8124;48.634;8.120;2022-07-23T13:16:50;30.00;97.30
16040;DHT22;8124;48.634;8.120;2022-07-23T13:21:53;30.10;97.50
16040;DHT22;8124;48.634;8.120;2022-07-23T13:26:57;30.10;97.10
16040;DHT22;8124;48.634;8.120;2022-07-23T13:32:02;30.20;96.50
16040;DHT22;8124;48.634;8.120;2022-07-23T13:37:14;30.00;95.70
16040;DHT22;8124;48.634;8.120;2022-07-23T13:42:18;30.10;95.10
16040;DHT22;8124;48.634;8.120;2022-07-23T13:47:24;30.20;94.80
16040;DHT22;8124;48.634;8.120;2022-07-23T13:52:28;30.30;94.70
16040;DHT22;8124;48.634;8.120;2022-07-23T13:57:32;30.60;94.70
16040;DHT22;8124;48.634;8.120;2022-07-23T14:02:36;30.80;94.40
16040;DHT22;8124;48.634;8.120;2022-07-23T14:07:40;30.90;93.90
16040;DHT22;8124;48.634;8.120;2022-07-23T14:12:48;30.80;93.30
16040;DHT22;8124;48.634;8.120;2022-07-23T14:17:53;30.70;92.70
16040;DHT22;8124;48.634;8.120;2022-07-23T14:22:56;30.80;92.50
16040;DHT22;8124;48.634;8.120;2022-07-23T14:28:08;30.90;92.30
16040;DHT22;8124;48.634;8.120;2022-07-23T14:33:11;30.70;91.60
16040;DHT22;8124;48.634;8.120;2022-07-23T14:38:16;30.80;91.50
16040;DHT22;8124;48.634;8.120;2022-07-23T14:43:20;30.90;91.20
16040;DHT22;8124;48.634;8.120;2022-07-23T14:48:23;31.30;91.20
16040;DHT22;8124;48.634;8.120;2022-07-23T14:53:26;31.10;90.50
16040;DHT22;8124;48.634;8.120;2022-07-23T14:58:31;31.20;90.20
16040;DHT22;8124;48.634;8.120;2022-07-23T15:03:34;31.20;90.10
16040;DHT22;8124;48.634;8.120;2022-07-23T15:08:44;31.10;89.00
16040;DHT22;8124;48.634;8.120;2022-07-23T15:13:50;31.50;88.90
16040;DHT22;8124;48.634;8.120;2022-07-23T15:18:53;31.40;88.10
16040;DHT22;8124;48.634;8.120;2022-07-23T15:23:57;31.20;86.80
16040;DHT22;8124;48.634;8.120;2022-07-23T15:29:02;31.10;86.10
16040;DHT22;8124;48.634;8.120;2022-07-23T15:34:08;31.10;85.80
16040;DHT22;8124;48.634;8.120;2022-07-23T15:39:11;31.10;85.40
16040;DHT22;8124;48.634;8.120;2022-07-23T15:44:16;30.90;84.70
16040;DHT22;8124;48.634;8.120;2022-07-23T15:49:30;30.80;84.50
16040;DHT22;8124;48.634;8.120;2022-07-23T15:54:33;30.90;84.40
16040;DHT22;8124;48.634;8.120;2022-07-23T15:59:37;30.80;84.40
16040;DHT22;8124;48.634;8.120;2022-07-23T16:04:42;30.80;84.50
16040;DHT22;8124;48.634;8.120;2022-07-23T16:09:45;30.70;84.40
16040;DHT22;8124;48.634;8.120;2022-07-23T16:14:50;30.90;84.80
16040;DHT22;8124;48.634;8.120;2022-07-23T16:19:53;31.20;85.50
16040;DHT22;8124;48.634;8.120;2022-07-23T16:24:57;31.20;86.00
16040;DHT22;8124;48.634;8.120;2022-07-23T16:30:02;30.90;84.50
16040;DHT22;8124;48.634;8.120;2022-07-23T16:35:06;30.80;84.10
16040;DHT22;8124;48.634;8.120;2022-07-23T16:40:15;30.90;84.40
16040;DHT22;8124;48.634;8.120;2022-07-23T16:45:20;30.80;84.20
16040;DHT22;8124;48.634;8.120;2022-07-23T16:50:23;30.90;84.80
16040;DHT22;8124;48.634;8.120;2022-07-23T16:55:26;30.60;84.70
16040;DHT22;8124;48.634;8.120;2022-07-23T17:00:31;30.50;85.20
16040;DHT22;8124;48.634;8.120;2022-07-23T17:05:34;30.60;86.20
16040;DHT22;8124;48.634;8.120;2022-07-23T17:10:37;30.30;86.00
16040;DHT22;8124;48.634;8.120;2022-07-23T17:15:41;30.20;86.60
16040;DHT22;8124;48.634;8.120;2022-07-23T17:20:45;30.20;87.20
16040;DHT22;8124;48.634;8.120;2022-07-23T17:25:48;30.10;87.50
16040;DHT22;8124;48.634;8.120;2022-07-23T17:30:52;30.10;88.20
16040;DHT22;8124;48.634;8.120;2022-07-23T17:35:56;30.10;88.70
16040;DHT22;8124;48.634;8.120;2022-07-23T17:40:59;30.20;89.40
16040;DHT22;8124;48.634;8.120;2022-07-23T17:46:03;30.10;89.50
16040;DHT22;8124;48.634;8.120;2022-07-23T17:51:07;30.20;90.00
16040;DHT22;8124;48.634;8.120;2022-07-23T17:56:11;30.30;90.70
16040;DHT22;8124;48.634;8.120;2022-07-23T18:01:15;30.40;91.10
16040;DHT22;8124;48.634;8.120;2022-07-23T18:06:18;30.50;91.20
16040;DHT22;8124;48.634;8.120;2022-07-23T18:11:21;30.30;90.90
16040;DHT22;8124;48.634;8.120;2022-07-23T18:16:27;30.30;90.80
16040;DHT22;8124;48.634;8.120;2022-07-23T18:21:30;30.20;90.50
16040;DHT22;8124;48.634;8.120;2022-07-23T18:26:33;30.10;90.30
16040;DHT22;8124;48.634;8.120;2022-07-23T18:31:37;29.90;90.20
16040;DHT22;8124;48.634;8.120;2022-07-23T18:36:41;29.90;90.50
16040;DHT22;8124;48.634;8.120;2022-07-23T18:41:44;30.00;90.90
16040;DHT22;8124;48.634;8.120;2022-07-23T18:46:49;30.20;91.30
16040;DHT22;8124;48.634;8.120;2022-07-23T18:51:52;30.50;92.00
16040;DHT22;8124;48.634;8.120;2022-07-23T18:56:56;30.40;91.90
16040;DHT22;8124;48.634;8.120;2022-07-23T19:02:02;30.20;92.10
16040;DHT22;8124;48.634;8.120;2022-07-23T19:07:05;30.20;92.90
16040;DHT22;8124;48.634;8.120;2022-07-23T19:12:08;30.00;93.20
16040;DHT22;8124;48.634;8.120;2022-07-23T19:17:13;29.90;93.70
16040;DHT22;8124;48.634;8.120;2022-07-23T19:22:16;29.80;94.00
16040;DHT22;8124;48.634;8.120;2022-07-23T19:27:19;29.70;94.40
16040;DHT22;8124;48.634;8.120;2022-07-23T19:32:23;29.60;94.40
16040;DHT22;8124;48.634;8.120;2022-07-23T19:37:26;29.50;94.50
16040;DHT22;8124;48.634;8.120;2022-07-23T19:42:30;29.30;94.90
16040;DHT22;8124;48.634;8.120;2022-07-23T19:47:39;29.20;95.10
16040;DHT22;8124;48.634;8.120;2022-07-23T19:52:54;28.80;95.20
16040;DHT22;8124;48.634;8.120;2022-07-23T19:57:58;28.90;95.70
16040;DHT22;8124;48.634;8.120;2022-07-23T20:03:02;28.50;95.80
16040;DHT22;8124;48.634;8.120;2022-07-23T20:08:05;28.40;96.80
16040;DHT22;8124;48.634;8.120;2022-07-23T20:13:08;28.40;97.90
16040;DHT22;8124;48.634;8.120;2022-07-23T20:18:12;28.40;98.60
16040;DHT22;8124;48.634;8.120;2022-07-23T20:23:15;28.40;99.00
16040;DHT22;8124;48.634;8.120;2022-07-23T20:28:19;28.30;99.30
16040;DHT22;8124;48.634;8.120;2022-07-23T20:33:24;28.10;99.30
16040;DHT22;8124;48.634;8.120;2022-07-23T20:38:27;28.20;99.20
16040;DHT22;8124;48.634;8.120;2022-07-23T20:43:30;28.10;99.00
16040;DHT22;8124;48.634;8.120;2022-07-23T20:48:34;28.00;99.30
16040;DHT22;8124;48.634;8.120;2022-07-23T20:53:37;27.90;99.40
16040;DHT22;8124;48.634;8.120;2022-07-23T20:58:40;27.80;99.50
16040;DHT22;8124;48.634;8.120;2022-07-23T21:03:44;27.70;99.50
16040;DHT22;8124;48.634;8.120;2022-07-23T21:08:47;27.10;99.70
16040;DHT22;8124;48.634;8.120;2022-07-23T21:13:50;26.30;99.90
16040;DHT22;8124;48.634;8.120;2022-07-23T21:18:55;26.90;99.90
16040;DHT22;8124;48.634;8.120;2022-07-23T21:23:59;26.90;99.90
16040;DHT22;8124;48.634;8.120;2022-07-23T21:29:02;26.90;99.90
16040;DHT22;8124;48.634;8.120;2022-07-23T21:34:08;26.40;99.90
16040;DHT22;8124;48.634;8.120;2022-07-23T21:39:11;26.70;99.90
16040;DHT22;8124;48.634;8.120;2022-07-23T21:44:16;26.70;99.90
16040;DHT22;8124;48.634;8.120;2022-07-23T21:49:20;26.60;99.90
16040;DHT22;8124;48.634;8.120;2022-07-23T21:54:23;26.00;99.90
16040;DHT22;8124;48.634;8.120;2022-07-23T21:59:26;26.10;99.90
16040;DHT22;8124;48.634;8.120;2022-07-23T22:04:31;26.30;99.90
16040;DHT22;8124;48.634;8.120;2022-07-23T22:09:34;26.50;99.90
16040;DHT22;8124;48.634;8.120;2022-07-23T22:14:37;26.60;99.90
16040;DHT22;8124;48.634;8.120;2022-07-23T22:19:41;26.50;99.90
16040;DHT22;8124;48.634;8.120;2022-07-23T22:24:44;26.00;99.90
16040;DHT22;8124;48.634;8.120;2022-07-23T22:29:47;26.20;99.90
16040;DHT22;8124;48.634;8.120;2022-07-23T22:34:51;26.30;99.90
16040;DHT22;8124;48.634;8.120;2022-07-23T22:39:54;26.30;99.90
16040;DHT22;8124;48.634;8.120;2022-07-23T22:44:57;26.00;99.90
16040;DHT22;8124;48.634;8.120;2022-07-23T22:50:03;26.10;99.90
16040;DHT22;8124;48.634;8.120;2022-07-23T22:55:11;26.10;99.90
16040;DHT22;8124;48.634;8.120;2022-07-23T23:00:15;26.30;99.90
16040;DHT22;8124;48.634;8.120;2022-07-23T23:05:21;26.20;99.90
16040;DHT22;8124;48.634;8.120;2022-07-23T23:10:24;26.20;99.90
16040;DHT22;8124;48.634;8.120;2022-07-23T23:15:27;25.80;99.90
16040;DHT22;8124;48.634;8.120;2022-07-23T23:20:32;25.90;99.90
16040;DHT22;8124;48.634;8.120;2022-07-23T23:25:35;25.90;99.90
16040;DHT22;8124;48.634;8.120;2022-07-23T23:30:38;26.10;99.90
16040;DHT22;8124;48.634;8.120;2022-07-23T23:35:42;26.20;99.90
16040;DHT22;8124;48.634;8.120;2022-07-23T23:40:45;26.00;99.90
16040;DHT22;8124;48.634;8.120;2022-07-23T23:45:48;26.00;99.90
16040;DHT22;8124;48.634;8.120;2022-07-23T23:50:53;26.00;99.90
16040;DHT22;8124;48.634;8.120;2022-07-23T23:55:56;25.70;99.90
